Time;durP1;ratioP1;P1;durP2;ratioP2;P2;SDS_P1;SDS_P2;PMS_P1;PMS_P2;Temp;Humidity;BMP_temperature;BMP_pressure;BME280_temperature;BME280_humidity;BME280_pressure;Samples;Min_cycle;Max_cycle;Signal;HPM_P1;HPM_P2
2023/12/28 00:02:16;;;;;;;44.58;10.93;;;6.30;99.90;;;;;;5109150;28;20028;-50
2023/12/28 00:04:42;;;;;;;48.90;10.90;;;6.20;99.90;;;;;;5124927;28;20020;-51
2023/12/28 00:07:07;;;;;;;41.88;10.50;;;6.20;99.90;;;;;;5125006;28;20024;-51
2023/12/28 00:09:33;;;;;;;36.00;10.18;;;6.20;99.90;;;;;;5109254;28;20524;-51
2023/12/28 00:11:59;;;;;;;44.92;10.93;;;6.30;99.90;;;;;;5124824;28;20035;-51
2023/12/28 00:14:24;;;;;;;42.25;9.68;;;6.20;99.90;;;;;;5124793;28;20086;-51
2023/12/28 00:16:50;;;;;;;39.20;9.77;;;6.20;99.90;;;;;;5107678;28;20032;-51
2023/12/28 00:19:15;;;;;;;35.22;10.32;;;6.20;99.90;;;;;;5125128;28;20029;-50
2023/12/28 00:21:41;;;;;;;32.67;9.52;;;6.20;99.90;;;;;;5109207;28;20028;-50
2023/12/28 00:24:07;;;;;;;34.70;10.95;;;6.20;99.90;;;;;;5124649;28;20034;-51
2023/12/28 00:26:32;;;;;;;34.67;9.15;;;6.20;99.90;;;;;;5124421;28;20032;-50
2023/12/28 00:28:58;;;;;;;32.45;9.65;;;6.20;99.90;;;;;;5109012;28;20024;-51
2023/12/28 00:31:23;;;;;;;42.45;9.55;;;6.20;99.90;;;;;;5090664;28;20035;-51
2023/12/28 00:33:50;;;;;;;33.17;9.20;;;6.10;99.90;;;;;;5107054;28;20488;-51
2023/12/28 00:36:16;;;;;;;37.10;10.45;;;6.10;99.90;;;;;;5124194;28;20027;-51
2023/12/28 00:38:42;;;;;;;33.38;9.45;;;6.10;99.90;;;;;;5108619;28;20020;-50
2023/12/28 00:41:07;;;;;;;29.50;9.73;;;6.10;99.90;;;;;;5123812;28;20036;-51
2023/12/28 00:43:33;;;;;;;35.75;9.00;;;6.10;99.90;;;;;;5108483;28;20023;-51
2023/12/28 00:45:59;;;;;;;35.72;9.18;;;6.10;99.90;;;;;;5107595;28;20058;-50
2023/12/28 00:48:24;;;;;;;32.53;8.82;;;6.10;99.90;;;;;;5124138;28;20024;-50
2023/12/28 00:50:50;;;;;;;34.03;9.05;;;6.10;99.90;;;;;;5108747;28;20468;-50
2023/12/28 00:53:15;;;;;;;31.02;9.38;;;6.10;99.90;;;;;;5107206;28;20078;-51
2023/12/28 00:55:41;;;;;;;30.52;9.05;;;6.10;99.90;;;;;;5123961;28;20043;-51
2023/12/28 00:58:07;;;;;;;32.95;8.95;;;6.10;99.90;;;;;;5089927;28;20063;-51
2023/12/28 01:00:32;;;;;;;29.20;8.85;;;6.00;99.90;;;;;;5106825;28;20036;-51
2023/12/28 01:02:58;;;;;;;33.83;8.65;;;6.10;99.90;;;;;;5089586;28;20092;-58
2023/12/28 01:05:26;;;;;;;30.30;8.80;;;6.10;99.90;;;;;;5108010;28;20081;-58
2023/12/28 01:07:51;;;;;;;31.40;8.75;;;6.00;99.90;;;;;;5107841;28;20046;-59
2023/12/28 01:10:17;;;;;;;31.20;9.25;;;6.00;99.90;;;;;;5106781;28;20039;-58
2023/12/28 01:12:43;;;;;;;30.13;9.52;;;6.00;99.90;;;;;;5108022;28;20035;-58
2023/12/28 01:15:09;;;;;;;27.25;8.30;;;6.00;99.90;;;;;;5123618;28;20032;-58
2023/12/28 01:17:34;;;;;;;33.90;8.48;;;6.00;99.90;;;;;;5107745;28;20024;-58
2023/12/28 01:20:00;;;;;;;24.02;8.50;;;6.00;99.90;;;;;;5123584;28;20040;-58
2023/12/28 01:22:25;;;;;;;24.65;7.93;;;6.00;99.90;;;;;;5107692;28;20107;-59
2023/12/28 01:24:51;;;;;;;21.48;7.20;;;6.00;99.90;;;;;;5089576;28;20023;-58
2023/12/28 01:27:17;;;;;;;31.58;8.23;;;6.00;99.90;;;;;;5123398;28;20054;-58
2023/12/28 01:29:42;;;;;;;23.20;7.60;;;5.90;99.90;;;;;;5106145;28;20028;-58
2023/12/28 01:32:08;;;;;;;21.58;7.47;;;5.90;99.90;;;;;;5089260;28;20469;-59
2023/12/28 01:34:33;;;;;;;19.77;7.93;;;6.00;99.90;;;;;;5107407;28;20028;-58
2023/12/28 01:36:59;;;;;;;27.73;7.28;;;5.90;99.90;;;;;;5106009;28;20116;-58
2023/12/28 01:39:24;;;;;;;28.50;8.20;;;6.00;99.90;;;;;;5107485;28;20028;-58
2023/12/28 01:41:50;;;;;;;29.30;8.23;;;5.90;99.90;;;;;;5107422;28;20035;-59
2023/12/28 01:44:15;;;;;;;24.25;8.18;;;5.90;99.90;;;;;;5107546;28;20487;-58
2023/12/28 01:46:41;;;;;;;22.90;7.45;;;5.90;99.90;;;;;;5107338;28;20480;-58
2023/12/28 01:49:07;;;;;;;19.33;7.60;;;5.90;99.90;;;;;;5106002;28;20028;-58
2023/12/28 01:51:32;;;;;;;23.83;7.60;;;5.90;99.90;;;;;;5122307;28;20028;-58
2023/12/28 01:53:58;;;;;;;20.20;7.68;;;5.90;99.90;;;;;;5122872;28;20031;-58
2023/12/28 01:56:24;;;;;;;21.33;8.35;;;5.90;99.90;;;;;;5123042;28;20088;-58
2023/12/28 01:58:49;;;;;;;20.58;7.47;;;5.90;99.90;;;;;;5106443;28;20028;-58
2023/12/28 02:01:15;;;;;;;22.30;7.72;;;5.90;99.90;;;;;;5123652;28;20522;-58
2023/12/28 02:03:40;;;;;;;27.88;8.45;;;5.80;99.90;;;;;;5122761;28;20158;-58
2023/12/28 02:06:07;;;;;;;21.60;7.97;;;5.80;99.90;;;;;;5106953;28;20498;-58
2023/12/28 02:08:32;;;;;;;30.92;7.93;;;5.90;99.90;;;;;;5122881;28;20035;-58
2023/12/28 02:10:58;;;;;;;20.63;7.65;;;5.80;99.90;;;;;;5088750;28;20028;-58
2023/12/28 02:13:24;;;;;;;19.90;7.97;;;5.80;99.90;;;;;;5105424;28;20038;-59
2023/12/28 02:16:01;;;;;;;18.92;7.10;;;5.90;99.90;;;;;;5122498;28;20036;-58
2023/12/28 02:18:35;;;;;;;21.95;7.30;;;5.80;99.90;;;;;;5105059;28;20491;-58
2023/12/28 02:21:01;;;;;;;22.10;6.57;;;5.80;99.90;;;;;;5105314;28;20369;-58
2023/12/28 02:23:27;;;;;;;15.00;6.53;;;5.80;99.90;;;;;;5105253;28;20058;-58
2023/12/28 02:25:52;;;;;;;14.75;6.32;;;5.80;99.90;;;;;;5122383;28;20430;-58
2023/12/28 02:28:18;;;;;;;18.65;7.78;;;5.80;99.90;;;;;;5106459;28;20025;-59
2023/12/28 02:30:43;;;;;;;27.63;7.90;;;5.80;99.90;;;;;;5106644;28;20032;-50
2023/12/28 02:33:15;;;;;;;16.90;6.88;;;5.80;99.90;;;;;;5105253;28;20380;-51
2023/12/28 02:35:47;;;;;;;22.20;7.30;;;5.80;99.90;;;;;;5106382;28;20097;-51
2023/12/28 02:38:14;;;;;;;20.40;6.65;;;5.80;99.90;;;;;;5121611;28;20039;-51
2023/12/28 02:40:41;;;;;;;16.23;6.22;;;5.80;99.90;;;;;;5104675;28;20054;-51
2023/12/28 02:43:07;;;;;;;19.02;6.80;;;5.70;99.90;;;;;;5106387;28;20020;-51
2023/12/28 02:45:33;;;;;;;22.52;7.07;;;5.70;99.90;;;;;;5106668;28;20031;-50
2023/12/28 02:47:58;;;;;;;19.83;7.13;;;5.80;99.90;;;;;;5104729;28;20024;-51
2023/12/28 02:50:24;;;;;;;13.45;6.53;;;5.70;99.90;;;;;;5106434;28;20066;-50
2023/12/28 02:52:49;;;;;;;25.05;5.95;;;5.70;99.90;;;;;;5106504;28;20024;-50
2023/12/28 02:55:15;;;;;;;19.50;6.35;;;5.70;99.90;;;;;;5122254;28;20088;-50
2023/12/28 02:57:40;;;;;;;18.73;6.50;;;5.70;99.90;;;;;;5104924;28;20031;-51
2023/12/28 03:00:08;;;;;;;18.58;6.65;;;5.70;99.90;;;;;;5104824;28;20031;-50
2023/12/28 03:02:37;;;;;;;22.77;6.90;;;5.70;99.90;;;;;;5106510;28;20012;-51
2023/12/28 03:05:04;;;;;;;16.70;5.97;;;5.70;99.90;;;;;;5125997;28;20032;-51
2023/12/28 03:07:30;;;;;;;14.57;5.47;;;5.70;99.90;;;;;;5092227;28;20016;-51
2023/12/28 03:09:55;;;;;;;18.50;5.85;;;5.70;99.90;;;;;;5092056;28;20353;-50
2023/12/28 03:12:22;;;;;;;17.90;6.43;;;5.70;99.90;;;;;;5110203;28;20051;-51
2023/12/28 03:14:47;;;;;;;15.32;6.05;;;5.70;99.90;;;;;;5125826;28;20066;-51
2023/12/28 03:17:13;;;;;;;15.25;5.82;;;5.70;99.90;;;;;;5108660;28;20032;-51
2023/12/28 03:19:39;;;;;;;16.02;6.00;;;5.70;99.90;;;;;;5125961;28;20209;-49
2023/12/28 03:22:04;;;;;;;10.55;5.90;;;5.60;99.90;;;;;;5110106;28;20031;-51
2023/12/28 03:24:30;;;;;;;18.85;6.15;;;5.70;99.90;;;;;;5109887;28;20456;-50
2023/12/28 03:26:55;;;;;;;13.18;5.47;;;5.70;99.90;;;;;;5109883;28;20074;-50
2023/12/28 03:29:21;;;;;;;15.68;5.78;;;5.60;99.90;;;;;;5125885;28;20034;-51
2023/12/28 03:31:47;;;;;;;14.60;5.80;;;5.60;99.90;;;;;;5108697;28;20392;-51
2023/12/28 03:34:12;;;;;;;14.35;6.35;;;5.60;99.90;;;;;;5109671;28;20039;-50
2023/12/28 03:36:38;;;;;;;16.75;5.57;;;5.60;99.90;;;;;;5125609;28;20426;-50
2023/12/28 03:39:03;;;;;;;18.33;6.03;;;5.60;99.90;;;;;;5109750;28;20028;-50
2023/12/28 03:41:30;;;;;;;14.63;6.10;;;5.60;99.90;;;;;;5109547;28;20032;-51
2023/12/28 03:43:55;;;;;;;14.35;5.55;;;5.60;99.90;;;;;;5091539;28;20076;-51
2023/12/28 03:46:21;;;;;;;17.98;6.00;;;5.60;99.90;;;;;;5091368;28;20039;-50
2023/12/28 03:48:47;;;;;;;13.52;5.63;;;5.60;99.90;;;;;;5109638;28;20024;-51
2023/12/28 03:51:15;;;;;;;21.85;6.40;;;5.60;99.90;;;;;;5109550;28;20066;-51
2023/12/28 03:53:44;;;;;;;13.98;5.47;;;5.60;99.90;;;;;;5108211;28;20032;-50
2023/12/28 03:56:26;;;;;;;13.45;5.50;;;5.60;99.90;;;;;;5109394;28;20047;-51
2023/12/28 03:58:52;;;;;;;11.63;4.97;;;5.60;99.90;;;;;;5125056;28;20119;-51
2023/12/28 04:01:19;;;;;;;15.45;5.68;;;5.60;99.90;;;;;;5108090;28;20035;-50
2023/12/28 04:03:45;;;;;;;15.98;5.65;;;5.60;99.90;;;;;;5124964;28;20055;-51
2023/12/28 04:06:12;;;;;;;13.90;5.30;;;5.60;99.90;;;;;;5109141;28;20039;-50
2023/12/28 04:08:38;;;;;;;13.45;5.57;;;5.60;99.90;;;;;;5109285;28;20043;-51
2023/12/28 04:11:03;;;;;;;15.07;5.80;;;5.60;99.90;;;;;;5109562;28;20032;-51
2023/12/28 04:13:29;;;;;;;12.25;6.43;;;5.50;99.90;;;;;;5109238;28;20076;-51
2023/12/28 04:15:54;;;;;;;11.38;5.00;;;5.60;99.90;;;;;;5108435;28;20028;-51
2023/12/28 04:18:20;;;;;;;16.58;5.47;;;5.60;99.90;;;;;;5090881;28;20024;-51
2023/12/28 04:20:46;;;;;;;13.15;5.22;;;5.50;99.90;;;;;;5107432;28;20031;-50
2023/12/28 04:23:11;;;;;;;12.82;5.68;;;5.50;99.90;;;;;;5124738;28;20042;-51
2023/12/28 04:25:37;;;;;;;14.73;5.70;;;5.50;99.90;;;;;;5108970;28;20031;-51
2023/12/28 04:28:02;;;;;;;13.90;5.60;;;5.50;99.90;;;;;;5124664;28;20480;-51
2023/12/28 04:30:28;;;;;;;14.18;5.38;;;5.50;99.90;;;;;;5108753;28;20051;-51
2023/12/28 04:32:54;;;;;;;11.73;5.57;;;5.50;99.90;;;;;;5108703;28;20537;-51
2023/12/28 04:35:19;;;;;;;14.98;5.38;;;5.50;99.90;;;;;;5124280;28;20038;-50
2023/12/28 04:37:45;;;;;;;11.05;4.88;;;5.50;99.90;;;;;;5108607;28;20021;-51
2023/12/28 04:40:10;;;;;;;14.15;5.32;;;5.50;99.90;;;;;;5107219;28;20036;-50
2023/12/28 04:42:36;;;;;;;13.80;5.05;;;5.50;99.90;;;;;;5124331;28;20016;-51
2023/12/28 04:45:02;;;;;;;11.30;4.53;;;5.50;99.90;;;;;;5124353;28;20028;-51
2023/12/28 04:47:27;;;;;;;10.63;4.45;;;5.50;99.90;;;;;;5106956;28;20035;-50
2023/12/28 04:49:53;;;;;;;13.27;4.82;;;5.50;99.90;;;;;;5124193;28;20035;-51
2023/12/28 04:52:18;;;;;;;10.88;5.07;;;5.50;99.90;;;;;;5108403;28;20047;-51
2023/12/28 04:54:44;;;;;;;7.93;4.35;;;5.50;99.90;;;;;;5124093;28;20380;-50
2023/12/28 04:57:09;;;;;;;10.52;4.95;;;5.50;99.90;;;;;;5123986;28;20024;-51
2023/12/28 04:59:41;;;;;;;10.73;4.78;;;5.50;99.90;;;;;;5124036;28;20031;-50
2023/12/28 05:02:07;;;;;;;10.38;5.13;;;5.50;99.90;;;;;;5108144;28;20032;-51
2023/12/28 05:04:33;;;;;;;10.73;5.03;;;5.50;99.90;;;;;;5123925;28;20050;-51
2023/12/28 05:06:58;;;;;;;12.20;4.90;;;5.50;99.90;;;;;;5107977;28;20031;-51
2023/12/28 05:09:24;;;;;;;14.18;4.65;;;5.40;99.90;;;;;;5123624;28;20024;-51
2023/12/28 05:11:50;;;;;;;10.43;5.43;;;5.40;99.90;;;;;;5107805;28;20032;-51
2023/12/28 05:14:15;;;;;;;14.52;5.05;;;5.40;99.90;;;;;;5123578;28;20107;-50
2023/12/28 05:16:41;;;;;;;9.85;4.70;;;5.40;99.90;;;;;;5123537;28;20059;-51
2023/12/28 05:19:07;;;;;;;7.50;4.43;;;5.40;99.90;;;;;;5107854;28;20024;-51
2023/12/28 05:21:33;;;;;;;9.15;5.18;;;5.40;99.90;;;;;;5107811;28;20024;-51
2023/12/28 05:23:58;;;;;;;12.85;5.22;;;5.40;99.90;;;;;;5107650;28;20020;-50
2023/12/28 05:26:24;;;;;;;14.57;5.13;;;5.40;99.90;;;;;;5122319;28;20043;-51
2023/12/28 05:28:49;;;;;;;11.70;4.90;;;5.40;99.90;;;;;;5107377;28;20024;-51
2023/12/28 05:31:15;;;;;;;8.10;4.22;;;5.40;99.90;;;;;;5123288;28;20028;-51
2023/12/28 05:33:40;;;;;;;10.50;4.65;;;5.40;99.90;;;;;;5107255;28;20024;-51
2023/12/28 05:36:06;;;;;;;11.75;5.05;;;5.40;99.90;;;;;;5107412;28;20058;-51
2023/12/28 05:38:32;;;;;;;7.80;4.38;;;5.40;99.90;;;;;;5107430;28;20106;-51
2023/12/28 05:40:57;;;;;;;10.52;4.68;;;5.30;99.90;;;;;;5107100;28;20028;-50
2023/12/28 05:43:23;;;;;;;9.32;4.38;;;5.30;99.90;;;;;;5107148;28;20068;-51
2023/12/28 05:45:49;;;;;;;8.27;4.07;;;5.40;99.90;;;;;;5123088;28;20048;-51
2023/12/28 05:48:14;;;;;;;10.80;4.35;;;5.40;99.90;;;;;;5107143;28;20044;-50
2023/12/28 05:50:40;;;;;;;11.38;4.65;;;5.30;99.90;;;;;;5105861;28;20035;-51
2023/12/28 05:53:05;;;;;;;8.52;4.28;;;5.30;99.90;;;;;;5107156;28;20472;-51
2023/12/28 05:55:31;;;;;;;11.10;4.90;;;5.30;99.90;;;;;;5105895;28;20036;-50
2023/12/28 05:57:57;;;;;;;12.10;4.93;;;5.30;99.90;;;;;;5106983;28;20024;-50
2023/12/28 06:00:22;;;;;;;12.02;4.63;;;5.30;99.90;;;;;;5122633;28;20399;-50
2023/12/28 06:02:51;;;;;;;9.05;4.55;;;5.30;99.90;;;;;;5105374;28;20028;-51
2023/12/28 06:05:17;;;;;;;8.45;4.45;;;5.30;99.90;;;;;;5107080;28;20055;-51
2023/12/28 06:07:43;;;;;;;7.68;4.38;;;5.30;99.90;;;;;;5105565;28;20029;-50
2023/12/28 06:10:09;;;;;;;7.57;3.90;;;5.30;99.90;;;;;;5106891;28;20480;-51
2023/12/28 06:12:35;;;;;;;10.27;4.63;;;5.30;99.90;;;;;;5122672;28;20089;-50
2023/12/28 06:15:01;;;;;;;9.25;4.50;;;5.30;99.90;;;;;;5122595;28;20027;-50
2023/12/28 06:17:26;;;;;;;8.38;4.07;;;5.30;99.90;;;;;;5122372;28;20028;-51
2023/12/28 06:19:52;;;;;;;8.18;4.28;;;5.30;99.90;;;;;;5122479;28;20388;-51
2023/12/28 06:22:18;;;;;;;12.15;4.43;;;5.20;99.90;;;;;;5106617;28;20024;-50
2023/12/28 06:24:43;;;;;;;14.13;4.22;;;5.30;99.90;;;;;;5105398;28;20022;-50
2023/12/28 06:27:09;;;;;;;6.85;4.18;;;5.20;99.90;;;;;;5105482;28;20070;-51
2023/12/28 06:29:35;;;;;;;7.97;4.40;;;5.20;99.90;;;;;;5122156;28;20024;-50
2023/12/28 06:32:00;;;;;;;6.70;3.70;;;5.20;99.90;;;;;;5105797;28;20025;-49
2023/12/28 06:34:26;;;;;;;8.43;3.97;;;5.20;99.90;;;;;;5106276;28;20054;-51
2023/12/28 06:36:52;;;;;;;7.63;3.95;;;5.20;99.90;;;;;;5122594;28;20024;-51
2023/12/28 06:39:17;;;;;;;8.27;3.80;;;5.20;99.90;;;;;;5122451;28;20035;-51
2023/12/28 06:41:48;;;;;;;7.38;3.75;;;5.20;99.90;;;;;;5122247;28;20024;-50
2023/12/28 06:44:14;;;;;;;6.38;4.05;;;5.20;99.90;;;;;;5104842;28;20028;-51
2023/12/28 06:46:40;;;;;;;11.40;4.57;;;5.20;99.90;;;;;;5106385;28;20097;-51
2023/12/28 06:49:06;;;;;;;9.38;4.38;;;5.20;99.90;;;;;;5122094;28;20062;-51
2023/12/28 06:51:31;;;;;;;8.18;4.07;;;5.20;99.90;;;;;;5105112;28;20051;-50
2023/12/28 06:53:57;;;;;;;8.98;4.57;;;5.10;99.90;;;;;;5106474;28;20077;-50
2023/12/28 06:56:23;;;;;;;9.32;4.22;;;5.10;99.90;;;;;;5105048;28;20020;-50
2023/12/28 06:58:48;;;;;;;7.45;3.67;;;5.20;99.90;;;;;;5121898;28;20059;-51
2023/12/28 07:01:14;;;;;;;8.25;3.97;;;5.10;99.90;;;;;;5121960;28;20484;-51
2023/12/28 07:03:40;;;;;;;7.30;3.88;;;5.20;99.90;;;;;;5106133;28;20028;-51
2023/12/28 07:06:05;;;;;;;9.82;3.72;;;5.10;99.90;;;;;;5106233;28;20122;-51
2023/12/28 07:08:31;;;;;;;6.55;3.30;;;5.10;99.90;;;;;;5122386;28;20024;-51
2023/12/28 07:10:59;;;;;;;9.35;3.75;;;5.10;99.90;;;;;;5122162;28;20036;-50
2023/12/28 07:13:25;;;;;;;6.00;3.78;;;5.10;99.90;;;;;;5106242;28;20028;-51
2023/12/28 07:15:51;;;;;;;6.30;3.30;;;5.10;99.90;;;;;;5106602;28;20078;-50
2023/12/28 07:18:16;;;;;;;5.88;3.17;;;5.10;99.90;;;;;;5121755;28;20106;-51
2023/12/28 07:20:42;;;;;;;6.22;3.60;;;5.10;99.90;;;;;;5106165;28;20426;-51
2023/12/28 07:23:08;;;;;;;6.07;3.70;;;5.00;99.90;;;;;;5121733;28;20028;-51
2023/12/28 07:25:34;;;;;;;5.57;3.25;;;5.00;99.90;;;;;;5121742;28;20087;-51
2023/12/28 07:28:00;;;;;;;5.03;3.55;;;5.00;99.90;;;;;;5104631;28;20081;-50
2023/12/28 07:30:25;;;;;;;7.38;3.45;;;5.00;99.90;;;;;;5121800;28;20066;-51
2023/12/28 07:32:51;;;;;;;7.57;3.47;;;5.00;99.90;;;;;;5121849;28;20062;-51
2023/12/28 07:35:17;;;;;;;8.50;3.50;;;5.00;99.90;;;;;;5105826;28;20446;-50
2023/12/28 07:37:44;;;;;;;6.68;3.83;;;5.00;99.90;;;;;;5121703;28;20024;-51
2023/12/28 07:40:11;;;;;;;6.40;3.28;;;5.00;99.90;;;;;;5105777;28;20043;-50
2023/12/28 07:42:37;;;;;;;5.32;3.13;;;5.00;99.90;;;;;;5120504;28;20418;-51
2023/12/28 07:45:02;;;;;;;8.10;3.30;;;5.00;99.90;;;;;;5107094;28;20024;-50
2023/12/28 07:47:29;;;;;;;6.10;3.55;;;5.00;99.90;;;;;;5125663;28;20039;-51
2023/12/28 07:49:54;;;;;;;4.50;2.75;;;5.00;99.90;;;;;;5108354;28;20031;-51
2023/12/28 07:52:20;;;;;;;5.43;3.17;;;5.00;99.90;;;;;;5111235;28;20610;-51
2023/12/28 07:54:46;;;;;;;6.80;3.45;;;5.00;99.90;;;;;;5109405;28;20020;-51
2023/12/28 07:57:11;;;;;;;8.50;3.25;;;5.00;99.90;;;;;;5125422;28;20475;-51
2023/12/28 07:59:37;;;;;;;5.63;3.30;;;5.00;99.90;;;;;;5091048;28;20092;-50
2023/12/28 08:02:02;;;;;;;6.10;3.70;;;5.00;99.90;;;;;;5124591;28;20034;-51
2023/12/28 08:04:28;;;;;;;5.47;3.33;;;5.00;99.90;;;;;;5111478;28;20027;-51
2023/12/28 08:06:54;;;;;;;4.82;2.90;;;5.00;99.90;;;;;;5097994;28;20025;-51
2023/12/28 08:09:19;;;;;;;5.28;3.30;;;5.00;99.90;;;;;;5110842;28;20392;-50
2023/12/28 08:11:45;;;;;;;7.80;3.65;;;5.00;99.90;;;;;;5091004;28;20040;-50
2023/12/28 08:14:11;;;;;;;4.93;3.30;;;5.00;99.90;;;;;;5101205;28;20496;-50
2023/12/28 08:16:36;;;;;;;3.75;2.90;;;5.00;99.90;;;;;;5106408;28;20028;-51
2023/12/28 08:19:02;;;;;;;7.00;3.28;;;5.10;99.90;;;;;;5088647;28;20087;-51
2023/12/28 08:21:28;;;;;;;6.03;2.90;;;5.10;99.90;;;;;;5115466;28;20040;-51
2023/12/28 08:23:53;;;;;;;5.50;3.15;;;5.10;99.90;;;;;;5124713;28;20024;-50
2023/12/28 08:26:19;;;;;;;5.30;3.60;;;5.10;99.90;;;;;;5109022;28;20493;-51
2023/12/28 08:28:45;;;;;;;7.45;3.30;;;5.10;99.90;;;;;;5071422;28;20044;-50
2023/12/28 08:31:10;;;;;;;6.43;3.38;;;5.10;99.90;;;;;;5121412;28;20032;-50
2023/12/28 08:33:39;;;;;;;5.47;3.28;;;5.10;99.90;;;;;;5127975;28;20119;-51
2023/12/28 08:36:05;;;;;;;3.92;3.33;;;5.10;99.90;;;;;;5088428;28;20028;-50
2023/12/28 08:38:31;;;;;;;4.70;3.40;;;5.10;99.90;;;;;;5084747;28;20031;-51
2023/12/28 08:40:56;;;;;;;5.53;2.90;;;5.10;99.90;;;;;;5105396;28;20310;-51
2023/12/28 08:43:22;;;;;;;7.03;3.42;;;5.10;99.90;;;;;;5098155;28;20082;-51
2023/12/28 08:45:48;;;;;;;6.57;3.42;;;5.10;99.90;;;;;;5103892;28;20032;-51
2023/12/28 08:48:13;;;;;;;7.15;3.40;;;5.10;99.90;;;;;;5088187;28;20020;-51
2023/12/28 08:50:39;;;;;;;4.90;3.35;;;5.20;99.90;;;;;;5117360;28;20036;-50
2023/12/28 08:53:04;;;;;;;6.22;3.35;;;5.20;99.90;;;;;;5123600;28;20034;-51
2023/12/28 08:55:30;;;;;;;5.88;3.30;;;5.20;99.90;;;;;;5108156;28;20046;-51
2023/12/28 08:57:56;;;;;;;4.75;3.38;;;5.20;99.90;;;;;;5108142;28;20146;-50
2023/12/28 09:00:21;;;;;;;4.75;3.17;;;5.20;99.90;;;;;;5104050;28;20548;-51
2023/12/28 09:02:47;;;;;;;5.45;3.47;;;5.20;99.90;;;;;;5101030;28;20027;-51
2023/12/28 09:05:12;;;;;;;3.95;3.40;;;5.20;99.90;;;;;;5120193;28;20522;-51
2023/12/28 09:07:42;;;;;;;4.78;3.35;;;5.20;99.90;;;;;;5100843;28;20118;-50
2023/12/28 09:10:11;;;;;;;5.10;3.45;;;5.20;99.90;;;;;;5086078;28;20043;-50
2023/12/28 09:12:43;;;;;;;7.32;3.75;;;5.30;99.90;;;;;;5103426;28;20021;-50
2023/12/28 09:15:09;;;;;;;7.70;3.88;;;5.30;99.90;;;;;;5071516;28;20032;-58
2023/12/28 09:17:34;;;;;;;6.80;3.25;;;5.30;99.90;;;;;;5088314;28;20085;-59
2023/12/28 09:20:01;;;;;;;5.85;3.35;;;5.30;99.90;;;;;;5106500;28;20066;-58
2023/12/28 09:22:27;;;;;;;5.43;3.85;;;5.30;99.90;;;;;;5107831;28;20027;-58
2023/12/28 09:24:52;;;;;;;5.55;3.75;;;5.30;99.90;;;;;;5123361;28;20020;-58
2023/12/28 09:27:18;;;;;;;5.63;3.13;;;5.30;99.90;;;;;;5106360;28;20028;-58
2023/12/28 09:29:43;;;;;;;6.85;3.25;;;5.30;99.90;;;;;;5082479;28;20054;-58
2023/12/28 09:32:09;;;;;;;5.78;3.97;;;5.30;99.90;;;;;;5107820;28;20055;-58
2023/12/28 09:34:34;;;;;;;7.22;3.92;;;5.30;99.90;;;;;;5098053;28;20028;-58
2023/12/28 09:37:00;;;;;;;7.20;3.40;;;5.40;99.90;;;;;;5090623;28;20043;-58
2023/12/28 09:39:26;;;;;;;6.95;3.72;;;5.40;99.90;;;;;;5088629;28;20122;-59
2023/12/28 09:42:02;;;;;;;5.78;3.40;;;5.40;99.90;;;;;;5098090;28;20031;-58
2023/12/28 09:44:27;;;;;;;8.07;4.30;;;5.40;99.90;;;;;;5087970;28;20021;-58
2023/12/28 09:46:53;;;;;;;11.98;4.15;;;5.40;99.90;;;;;;5087976;28;20040;-58
2023/12/28 09:49:21;;;;;;;7.93;3.38;;;5.40;99.90;;;;;;5091696;28;20037;-58
2023/12/28 09:51:47;;;;;;;11.75;3.88;;;5.50;99.90;;;;;;5110870;28;20067;-58
2023/12/28 09:54:13;;;;;;;9.57;3.70;;;5.50;99.90;;;;;;5112634;27;20055;-58
2023/12/28 09:56:38;;;;;;;8.25;3.58;;;5.50;99.90;;;;;;5112663;27;20092;-58
2023/12/28 09:59:04;;;;;;;10.88;3.88;;;5.50;99.90;;;;;;5117236;27;20019;-58
2023/12/28 10:01:30;;;;;;;20.50;4.53;;;5.50;99.90;;;;;;5101654;28;20029;-58
2023/12/28 10:03:55;;;;;;;11.27;3.80;;;5.60;99.90;;;;;;5107298;27;20082;-58
2023/12/28 10:06:21;;;;;;;11.48;3.78;;;5.60;99.90;;;;;;5119286;28;20024;-58
2023/12/28 10:08:47;;;;;;;11.65;4.00;;;5.60;99.90;;;;;;5092553;28;20028;-58
2023/12/28 10:11:14;;;;;;;17.80;4.55;;;5.60;99.90;;;;;;5087507;28;20067;-58
2023/12/28 10:13:40;;;;;;;23.70;4.03;;;5.70;99.90;;;;;;5106548;28;20054;-58
2023/12/28 10:16:07;;;;;;;37.88;6.03;;;5.70;99.90;;;;;;5102978;28;20024;-58
2023/12/28 10:18:33;;;;;;;37.30;5.95;;;5.70;99.90;;;;;;5091138;28;20031;-58
2023/12/28 10:20:58;;;;;;;29.75;5.13;;;5.70;99.90;;;;;;5115361;28;20027;-58
2023/12/28 10:23:24;;;;;;;33.97;5.57;;;5.70;99.90;;;;;;5096335;28;20035;-58
2023/12/28 10:25:53;;;;;;;40.03;6.40;;;5.80;99.90;;;;;;5107457;28;20050;-59
2023/12/28 10:28:19;;;;;;;53.42;7.45;;;5.80;99.90;;;;;;5101558;28;20016;-58
2023/12/28 10:30:45;;;;;;;40.25;6.80;;;5.80;99.90;;;;;;5098856;28;20028;-58
2023/12/28 10:33:11;;;;;;;33.40;6.20;;;5.80;99.90;;;;;;5093873;28;20031;-59
2023/12/28 10:35:36;;;;;;;34.47;7.88;;;5.90;99.90;;;;;;5112983;28;20039;-59
2023/12/28 10:38:03;;;;;;;51.72;7.03;;;5.90;99.90;;;;;;5096401;28;20040;-58
2023/12/28 10:40:30;;;;;;;67.32;8.23;;;5.90;99.90;;;;;;5115341;27;20043;-59
2023/12/28 10:43:01;;;;;;;43.80;7.15;;;5.90;99.90;;;;;;5095165;28;20034;-58
2023/12/28 10:45:28;;;;;;;50.80;7.75;;;6.00;99.90;;;;;;5110447;28;20024;-58
2023/12/28 10:48:08;;;;;;;33.70;6.78;;;6.00;99.90;;;;;;5092564;28;20039;-58
2023/12/28 10:50:46;;;;;;;49.92;7.63;;;6.00;99.90;;;;;;5087038;28;20024;-59
2023/12/28 10:53:43;;;;;;;51.42;7.35;;;6.10;99.90;;;;;;5105142;28;20031;-59
2023/12/28 10:56:12;;;;;;;49.92;7.72;;;6.10;99.90;;;;;;5099374;28;20038;-59
2023/12/28 10:58:44;;;;;;;64.15;8.68;;;6.10;99.90;;;;;;5114126;28;20383;-58
2023/12/28 11:01:10;;;;;;;45.20;7.95;;;6.10;99.90;;;;;;5100161;28;20052;-59
2023/12/28 11:03:37;;;;;;;54.17;9.00;;;6.20;99.90;;;;;;5090157;28;20031;-58
2023/12/28 11:06:04;;;;;;;52.03;6.90;;;6.20;99.90;;;;;;5095272;28;20028;-59
2023/12/28 11:08:32;;;;;;;67.47;9.48;;;6.20;99.90;;;;;;5095813;28;20019;-58
2023/12/28 11:10:57;;;;;;;58.45;8.98;;;6.30;99.90;;;;;;5089099;28;20105;-59
2023/12/28 11:13:23;;;;;;;79.47;10.73;;;6.30;99.90;;;;;;5087096;28;20016;-58
2023/12/28 11:15:50;;;;;;;121.50;14.77;;;6.40;99.90;;;;;;5106665;28;20081;-59
2023/12/28 11:18:16;;;;;;;134.38;13.05;;;6.40;99.90;;;;;;5097552;28;20017;-60
2023/12/28 11:20:45;;;;;;;105.78;13.00;;;6.40;99.90;;;;;;5098544;28;20036;-56
2023/12/28 11:23:10;;;;;;;131.18;14.07;;;6.50;99.90;;;;;;5088362;28;20029;-59
2023/12/28 11:25:36;;;;;;;112.60;13.77;;;6.50;99.90;;;;;;5093361;28;20028;-59
2023/12/28 11:28:11;;;;;;;99.43;12.07;;;6.60;99.90;;;;;;5107959;28;20093;-59
2023/12/28 11:30:37;;;;;;;;;;;6.60;99.90;;;;;;5122606;28;20058;-59
2023/12/28 11:33:05;;;;;;;82.70;11.75;;;6.60;99.90;;;;;;5126055;28;19908;-59
2023/12/28 11:35:40;;;;;;;94.95;13.55;;;6.60;99.90;;;;;;5092483;28;20040;-59
2023/12/28 11:38:10;;;;;;;83.80;12.68;;;6.70;99.90;;;;;;5125430;28;20047;-59
2023/12/28 11:40:42;;;;;;;85.97;12.20;;;6.60;99.90;;;;;;5115097;28;20037;-59
2023/12/28 11:43:18;;;;;;;101.18;13.02;;;6.70;99.90;;;;;;5108125;28;20545;-59
2023/12/28 11:45:51;;;;;;;89.53;12.05;;;6.70;99.90;;;;;;5129700;28;20027;-59
2023/12/28 11:48:27;;;;;;;95.47;11.27;;;6.80;99.90;;;;;;5130096;28;20072;-56
2023/12/28 11:50:59;;;;;;;;;;;6.70;99.90;;;;;;5105316;28;20036;-56
2023/12/28 11:53:25;;;;;;;115.05;14.98;;;6.80;99.90;;;;;;5104165;28;20364;-56
2023/12/28 11:55:50;;;;;;;87.05;13.13;;;6.80;99.90;;;;;;5119154;28;20098;-57
2023/12/28 11:58:18;;;;;;;90.85;13.88;;;6.80;99.90;;;;;;5116085;28;20039;-56
2023/12/28 12:00:43;;;;;;;109.75;13.63;;;6.90;99.90;;;;;;5109212;28;20032;-56
2023/12/28 12:03:12;;;;;;;97.78;12.15;;;6.90;99.90;;;;;;5109539;28;20499;-56
2023/12/28 12:05:38;;;;;;;118.05;15.40;;;6.90;99.90;;;;;;5125543;28;20077;-56
2023/12/28 12:08:05;;;;;;;169.70;20.90;;;6.90;99.90;;;;;;5118738;28;20049;-56
2023/12/28 12:10:32;;;;;;;109.57;13.60;;;6.90;99.90;;;;;;5082273;28;20047;-56
2023/12/28 12:12:57;;;;;;;113.63;13.30;;;6.90;99.90;;;;;;5090184;28;20028;-56
2023/12/28 12:15:23;;;;;;;94.57;13.93;;;7.00;99.90;;;;;;5089628;28;20031;-57
2023/12/28 12:17:49;;;;;;;215.88;23.52;;;7.00;99.90;;;;;;5110928;28;20028;-56
2023/12/28 12:20:14;;;;;;;131.50;15.73;;;7.00;99.90;;;;;;5094720;28;20077;-57
2023/12/28 12:22:40;;;;;;;108.20;15.80;;;7.10;99.90;;;;;;5073400;28;20485;-56
2023/12/28 12:25:05;;;;;;;174.85;18.13;;;7.10;99.90;;;;;;5083972;28;20040;-56
2023/12/28 12:27:31;;;;;;;88.05;13.35;;;7.10;99.90;;;;;;5102501;28;20024;-56
2023/12/28 12:29:57;;;;;;;106.88;13.73;;;7.20;99.90;;;;;;5120386;28;20138;-56
2023/12/28 12:32:23;;;;;;;121.18;15.55;;;7.20;99.90;;;;;;5115040;28;20024;-56
2023/12/28 12:34:49;;;;;;;139.80;17.95;;;7.20;99.90;;;;;;5070253;28;20044;-57
2023/12/28 12:37:15;;;;;;;99.60;13.52;;;7.20;99.90;;;;;;5100503;28;20134;-56
2023/12/28 12:39:41;;;;;;;113.15;14.38;;;7.30;99.90;;;;;;5090899;28;20047;-56
2023/12/28 12:42:06;;;;;;;126.97;17.33;;;7.30;99.90;;;;;;5073253;28;20032;-56
2023/12/28 12:44:32;;;;;;;138.48;17.58;;;7.40;99.90;;;;;;5060810;28;20026;-56